Time;durP1;ratioP1;P1;durP2;ratioP2;P2;SDS_P1;SDS_P2;PMS_P1;PMS_P2;Temp;Humidity;BMP_temperature;BMP_pressure;BME280_temperature;BME280_humidity;BME280_pressure;Samples;Min_cycle;Max_cycle;Signal;HPM_P1;HPM_P2
2022/12/20 00:00:22;;;;;;;4.28;2.90;;;;;;;6.74;100.00;100441.19;5107075;28;20115;-69
2022/12/20 00:02:47;;;;;;;5.28;2.45;;;;;;;6.68;100.00;100427.72;5116375;28;20035;-69
2022/12/20 00:05:13;;;;;;;5.40;2.90;;;;;;;6.89;100.00;100449.25;5102075;28;20049;-69
2022/12/20 00:07:38;;;;;;;6.80;2.80;;;;;;;6.93;100.00;100461.22;5111926;28;20028;-69
2022/12/20 00:10:04;;;;;;;9.57;2.70;;;;;;;6.95;100.00;100448.47;5108629;28;20043;-69
2022/12/20 00:12:30;;;;;;;3.97;2.08;;;;;;;6.95;100.00;100453.81;5104540;28;20036;-69
2022/12/20 00:14:55;;;;;;;6.65;2.40;;;;;;;6.97;100.00;100461.69;5116471;28;20047;-69
2022/12/20 00:17:21;;;;;;;8.18;2.45;;;;;;;6.86;100.00;100427.38;5103603;28;20518;-69
2022/12/20 00:19:47;;;;;;;5.63;2.25;;;;;;;7.04;100.00;100442.03;5093605;28;20488;-69
2022/12/20 00:22:12;;;;;;;9.85;2.22;;;;;;;7.01;100.00;100437.03;5111936;28;20068;-69
2022/12/20 00:24:38;;;;;;;6.65;2.42;;;;;;;6.94;100.00;100420.06;5068541;28;20043;-69
2022/12/20 00:27:03;;;;;;;9.55;2.90;;;;;;;7.11;100.00;100452.81;5114931;28;20486;-69
2022/12/20 00:29:28;;;;;;;7.80;2.60;;;;;;;7.11;100.00;100439.44;5105445;28;20042;-69
2022/12/20 00:31:54;;;;;;;7.82;2.60;;;;;;;7.16;100.00;100438.91;5109814;28;20028;-70
2022/12/20 00:34:19;;;;;;;7.15;2.47;;;;;;;7.08;100.00;100415.72;5112221;28;20043;-69
2022/12/20 00:36:45;;;;;;;9.13;2.78;;;;;;;7.16;100.00;100441.56;5101336;28;20032;-69
2022/12/20 00:39:10;;;;;;;6.18;3.00;;;;;;;7.17;100.00;100430.69;5069487;28;20038;-69
2022/12/20 00:41:36;;;;;;;9.00;3.20;;;;;;;7.24;100.00;100442.28;5113295;28;20032;-69
2022/12/20 00:44:03;;;;;;;8.45;3.38;;;;;;;7.28;100.00;100426.69;5108832;28;20027;-70
2022/12/20 00:46:30;;;;;;;6.72;3.22;;;;;;;7.32;100.00;100433.34;5103022;28;20036;-70
2022/12/20 00:48:56;;;;;;;7.03;4.10;;;;;;;7.34;100.00;100433.16;5114857;28;20028;-69
2022/12/20 00:51:25;;;;;;;9.20;4.00;;;;;;;7.37;100.00;100430.94;5101629;28;20031;-69
2022/12/20 00:53:51;;;;;;;10.40;4.35;;;;;;;7.40;100.00;100429.72;5109262;28;20052;-69
2022/12/20 00:56:17;;;;;;;14.48;4.82;;;;;;;7.34;100.00;100425.13;5109862;28;20032;-69
2022/12/20 00:58:43;;;;;;;11.77;4.10;;;;;;;7.12;100.00;100397.47;5102582;28;20509;-70
2022/12/20 01:01:21;;;;;;;17.98;5.10;;;;;;;7.18;100.00;100402.06;5114844;28;20051;-69
2022/12/20 01:03:48;;;;;;;11.65;5.97;;;;;;;7.34;100.00;100427.78;5106681;28;20106;-69
2022/12/20 01:06:14;;;;;;;19.10;7.13;;;;;;;7.42;100.00;100423.19;5107079;28;20491;-69
2022/12/20 01:08:45;;;;;;;23.00;7.53;;;;;;;7.36;100.00;100418.56;5114904;28;20067;-69
2022/12/20 01:11:20;;;;;;;16.77;7.65;;;;;;;7.41;100.00;100405.44;5115005;28;20028;-69
2022/12/20 01:13:46;;;;;;;;;;;;;;;7.44;100.00;100407.75;5107692;28;20063;-69
2022/12/20 01:16:21;;;;;;;22.23;7.20;;;;;;;7.47;100.00;100410.03;5107486;28;19966;-69
2022/12/20 01:18:47;;;;;;;18.73;6.40;;;;;;;7.48;100.00;100405.50;5115338;28;20092;-69
2022/12/20 01:21:15;;;;;;;25.88;7.95;;;;;;;7.45;100.00;100411.25;5105981;28;20058;-70
2022/12/20 01:23:41;;;;;;;20.08;6.93;;;;;;;7.41;100.00;100413.47;5115429;28;20028;-70
2022/12/20 01:26:11;;;;;;;23.05;7.30;;;;;;;7.45;100.00;100408.56;5115456;28;20064;-70
2022/12/20 01:28:41;;;;;;;32.10;8.40;;;;;;;7.58;100.00;100415.91;5107054;28;20020;-69
2022/12/20 01:31:13;;;;;;;28.20;8.10;;;;;;;7.49;100.00;100423.25;5118932;28;20035;-70
2022/12/20 01:33:39;;;;;;;35.92;8.35;;;;;;;7.59;100.00;100412.25;5111638;28;20054;-70
2022/12/20 01:36:07;;;;;;;31.65;8.30;;;;;;;7.51;100.00;100419.34;5111951;28;20131;-70
2022/12/20 01:38:34;;;;;;;41.40;9.32;;;;;;;7.40;100.00;100387.72;5118122;28;20032;-70
2022/12/20 01:41:00;;;;;;;34.60;9.32;;;;;;;7.57;100.00;100406.25;5107207;28;20028;-70
2022/12/20 01:44:06;;;;;;;24.33;6.60;;;;;;;7.58;100.00;100406.03;5116782;28;20054;-70
2022/12/20 01:46:34;;;;;;;16.95;5.35;;;;;;;7.59;100.00;100397.00;5114908;28;20031;-70
2022/12/20 01:48:59;;;;;;;15.80;5.10;;;;;;;7.61;100.00;100399.47;5104993;27;20130;-70
2022/12/20 01:51:28;;;;;;;18.70;5.80;;;;;;;7.64;100.00;100399.94;5114685;28;20028;-70
2022/12/20 01:54:19;;;;;;;19.58;6.32;;;;;;;7.53;100.00;100387.03;5108862;28;20035;-70
2022/12/20 01:56:50;;;;;;;18.10;6.05;;;;;;;7.60;100.00;100401.34;5103571;28;20028;-70
2022/12/20 01:59:16;;;;;;;22.55;6.30;;;;;;;7.57;100.00;100395.53;5087834;28;20027;-70
2022/12/20 02:01:43;;;;;;;24.02;6.63;;;;;;;7.63;100.00;100392.09;5113584;28;20040;-70
2022/12/20 02:04:09;;;;;;;18.42;6.40;;;;;;;7.67;100.00;100388.00;5112595;28;20034;-69
2022/12/20 02:06:34;;;;;;;32.92;8.38;;;;;;;7.46;100.00;100351.34;5105840;28;20032;-70
2022/12/20 02:09:02;;;;;;;32.22;7.95;;;;;;;7.76;100.00;100394.91;5118226;28;20035;-70
2022/12/20 02:12:00;;;;;;;28.05;7.93;;;;;;;7.75;100.00;100379.88;5106699;28;20034;-70
2022/12/20 02:15:11;;;;;;;33.28;9.55;;;;;;;7.70;100.00;100372.38;5078703;28;20094;-70
2022/12/20 02:18:05;;;;;;;30.48;9.30;;;;;;;7.78;100.00;100379.47;5094320;28;20051;-69
2022/12/20 02:20:45;;;;;;;36.05;9.63;;;;;;;7.85;100.00;100382.22;5105795;28;20038;-69
2022/12/20 02:23:33;;;;;;;38.67;9.95;;;;;;;7.85;100.00;100377.69;5116107;28;20032;-70
2022/12/20 02:26:17;;;;;;;35.20;10.27;;;;;;;7.84;100.00;100381.38;5108674;28;20047;-70
2022/12/20 02:28:54;;;;;;;35.75;10.02;;;;;;;7.82;100.00;100382.63;5104619;28;20047;-69
2022/12/20 02:31:26;;;;;;;31.17;9.60;;;;;;;7.82;100.00;100377.25;5089517;28;20386;-70
2022/12/20 02:33:54;;;;;;;40.58;10.18;;;;;;;7.81;100.00;100376.41;5112521;28;20039;-70
2022/12/20 02:36:20;;;;;;;49.58;12.30;;;;;;;7.75;100.00;100377.19;5114383;28;20032;-69
2022/12/20 02:38:45;;;;;;;39.67;10.82;;;;;;;7.85;100.00;100371.53;5106082;28;20036;-70
2022/12/20 02:41:16;;;;;;;44.10;11.40;;;;;;;7.83;100.00;100379.72;5101931;28;20040;-70
2022/12/20 02:46:31;;;;;;;53.20;12.93;;;;;;;7.93;100.00;100380.22;5108705;28;20086;-70
2022/12/20 02:49:02;;;;;;;62.53;12.95;;;;;;;7.89;100.00;100372.78;5118738;28;20105;-70
2022/12/20 02:51:32;;;;;;;80.20;15.43;;;;;;;7.96;100.00;100371.00;5107385;28;20024;-70
2022/12/20 02:53:59;;;;;;;91.13;17.42;;;;;;;7.97;100.00;100373.47;5111991;28;20044;-69
2022/12/20 02:56:31;;;;;;;115.78;19.00;;;;;;;7.98;100.00;100364.44;5114862;28;20422;-70
2022/12/20 02:59:19;;;;;;;89.97;17.55;;;;;;;7.88;100.00;100347.84;5104204;28;20024;-70
2022/12/20 03:01:49;;;;;;;85.75;17.08;;;;;;;7.99;100.00;100370.59;5114913;28;20089;-70
2022/12/20 03:04:16;;;;;;;71.28;15.05;;;;;;;8.02;100.00;100354.16;5115182;28;20389;-70
2022/12/20 03:07:18;;;;;;;53.65;13.68;;;;;;;8.05;100.00;100360.97;5107932;28;20036;-70
2022/12/20 03:09:44;;;;;;;42.40;11.52;;;;;;;7.79;100.00;100322.22;5096736;28;20024;-70
2022/12/20 03:12:12;;;;;;;53.88;13.57;;;;;;;8.08;100.00;100368.59;5111864;28;20111;-70
2022/12/20 03:14:40;;;;;;;75.68;15.75;;;;;;;8.13;100.00;100371.53;5117543;28;20413;-70
2022/12/20 03:17:06;;;;;;;133.98;20.20;;;;;;;7.95;100.00;100338.00;5105931;28;20422;-70
2022/12/20 03:19:32;;;;;;;156.93;21.98;;;;;;;8.07;100.00;100356.22;5114875;28;20027;-70
2022/12/20 03:21:58;;;;;;;119.30;19.33;;;;;;;8.13;100.00;100363.50;5092845;28;20036;-70
2022/12/20 03:24:24;;;;;;;126.95;21.05;;;;;;;7.96;100.00;100331.63;5106525;28;20038;-70
2022/12/20 03:26:50;;;;;;;137.70;22.83;;;;;;;7.92;100.00;100311.59;5117106;28;20088;-70
2022/12/20 03:29:18;;;;;;;119.60;20.70;;;;;;;8.19;100.00;100362.72;5104612;28;20036;-70
2022/12/20 03:31:44;;;;;;;97.45;20.23;;;;;;;8.24;100.00;100358.47;5112747;28;20035;-70
2022/12/20 03:34:09;;;;;;;136.18;21.85;;;;;;;8.26;100.00;100344.84;5110827;28;20036;-70
2022/12/20 03:36:34;;;;;;;76.93;18.08;;;;;;;8.11;100.00;100338.75;5104998;28;20428;-70
2022/12/20 03:39:00;;;;;;;124.97;20.17;;;;;;;8.21;100.00;100353.47;5099383;28;20101;-69
2022/12/20 03:41:26;;;;;;;98.05;17.85;;;;;;;8.16;100.00;100349.72;5107132;28;20433;-69
2022/12/20 03:43:51;;;;;;;84.57;18.40;;;;;;;8.00;100.00;100332.88;5111479;28;20513;-69
2022/12/20 03:46:17;;;;;;;85.97;19.02;;;;;;;8.04;100.00;100349.41;5112510;28;20027;-70
2022/12/20 03:48:43;;;;;;;123.18;20.00;;;;;;;8.02;100.00;100343.44;5104825;28;20028;-69
2022/12/20 03:51:08;;;;;;;129.88;21.33;;;;;;;8.16;100.00;100350.53;5117037;28;20043;-69
2022/12/20 03:53:34;;;;;;;129.73;21.85;;;;;;;8.16;100.00;100363.13;5108237;28;20505;-70
2022/12/20 03:55:59;;;;;;;132.55;22.17;;;;;;;8.19;100.00;100349.34;5111511;28;20501;-69
2022/12/20 03:58:25;;;;;;;140.30;22.15;;;;;;;8.21;100.00;100355.31;5114599;28;20039;-69
2022/12/20 04:00:50;;;;;;;132.70;22.17;;;;;;;8.26;100.00;100352.88;5105680;28;20032;-70
2022/12/20 04:03:16;;;;;;;168.48;24.73;;;;;;;8.30;100.00;100356.81;5115581;28;20059;-70
2022/12/20 04:05:46;;;;;;;249.02;28.27;;;;;;;8.13;100.00;100323.31;5110783;28;20031;-70
2022/12/20 04:08:11;;;;;;;223.50;25.77;;;;;;;8.24;100.00;100345.06;5107266;28;20036;-70
2022/12/20 04:11:14;;;;;;;305.15;30.13;;;;;;;8.32;100.00;100349.44;5113766;28;20036;-69
2022/12/20 04:13:22;;;;;;;211.40;26.73;;;;;;;8.37;100.00;100348.81;5104456;28;20103;-70
2022/12/20 04:15:47;;;;;;;225.07;28.23;;;;;;;8.42;100.00;100359.84;5110684;28;20056;-70
2022/12/20 04:18:13;;;;;;;222.95;26.63;;;;;;;8.41;100.00;100350.97;5111822;28;20115;-70
2022/12/20 04:20:38;;;;;;;222.80;28.20;;;;;;;8.39;100.00;100350.31;5103742;28;20491;-70
2022/12/20 04:23:06;;;;;;;302.40;30.02;;;;;;;8.41;100.00;100342.94;5115679;28;20081;-70
2022/12/20 04:25:32;;;;;;;223.45;27.85;;;;;;;8.31;100.00;100315.63;5088071;28;20036;-70
2022/12/20 04:27:59;;;;;;;210.18;28.30;;;;;;;8.47;100.00;100354.69;5092301;28;20471;-70
2022/12/20 04:30:25;;;;;;;287.90;31.27;;;;;;;8.47;100.00;100352.84;5111994;28;20317;-70
2022/12/20 04:32:53;;;;;;;216.02;28.63;;;;;;;8.51;100.00;100352.44;5101624;28;20039;-70
2022/12/20 04:35:27;;;;;;;246.45;30.23;;;;;;;8.47;100.00;100341.28;5098299;28;20392;-70
2022/12/20 04:37:53;;;;;;;207.27;30.20;;;;;;;8.46;100.00;100345.00;5090722;28;20027;-69
2022/12/20 04:40:18;;;;;;;239.90;31.35;;;;;;;8.42;100.00;100336.53;5108047;28;20127;-70
2022/12/20 04:42:43;;;;;;;193.00;29.35;;;;;;;8.49;100.00;100354.53;5081780;28;20028;-70
2022/12/20 04:45:09;;;;;;;198.85;29.45;;;;;;;8.47;100.00;100352.84;5116589;28;20041;-70
2022/12/20 04:47:35;;;;;;;228.55;29.40;;;;;;;8.40;100.00;100329.69;5105430;28;20019;-70
2022/12/20 04:50:00;;;;;;;194.48;28.55;;;;;;;8.51;100.00;100341.72;5107795;28;20111;-69
2022/12/20 04:55:09;;;;;;;206.93;28.65;;;;;;;8.53;100.00;100328.97;5102792;28;20565;-70
2022/12/20 04:57:35;;;;;;;180.85;28.48;;;;;;;8.44;100.00;100315.72;5099478;28;20127;-70
2022/12/20 05:00:00;;;;;;;229.68;30.52;;;;;;;8.42;100.00;100311.59;5078811;28;20095;-71
2022/12/20 05:02:26;;;;;;;193.23;28.50;;;;;;;8.60;100.00;100322.59;5093752;28;20056;-70
2022/12/20 05:04:51;;;;;;;155.68;27.17;;;;;;;8.63;100.00;100330.25;5120787;28;20112;-70
2022/12/20 05:07:16;;;;;;;175.68;28.42;;;;;;;8.63;100.00;100319.53;5107713;28;20394;-70
2022/12/20 05:09:42;;;;;;;220.90;28.25;;;;;;;8.56;100.00;100299.91;5117823;28;20092;-70
2022/12/20 05:12:07;;;;;;;177.48;27.20;;;;;;;8.62;100.00;100311.69;5096699;28;20096;-70
2022/12/20 05:14:33;;;;;;;187.68;28.08;;;;;;;8.74;100.00;100306.56;5090495;28;20071;-70
2022/12/20 05:16:58;;;;;;;183.85;28.40;;;;;;;8.71;100.00;100305.16;5119926;28;20108;-70
2022/12/20 05:19:23;;;;;;;179.23;26.67;;;;;;;8.67;100.00;100323.47;5117939;28;20035;-70
2022/12/20 05:27:30;;;;;;;181.80;25.85;;;;;;;8.72;100.00;100312.16;5094152;28;20046;-70
2022/12/20 05:29:56;;;;;;;186.52;26.98;;;;;;;8.68;100.00;100310.91;5096489;28;20032;-70
2022/12/20 05:32:21;;;;;;;160.00;25.77;;;;;;;8.85;100.00;100333.69;5116631;28;20039;-70
2022/12/20 05:34:46;;;;;;;241.20;29.98;;;;;;;8.85;100.00;100338.22;5111064;28;20051;-71
2022/12/20 05:37:12;;;;;;;185.18;26.33;;;;;;;8.85;100.00;100341.72;5135314;28;20062;-71
2022/12/20 05:39:37;;;;;;;214.57;28.80;;;;;;;8.79;100.00;100325.59;5114469;28;20046;-70
2022/12/20 05:42:03;;;;;;;214.10;28.27;;;;;;;8.88;100.00;100354.75;5112375;28;20032;-70
2022/12/20 05:44:28;;;;;;;197.40;26.58;;;;;;;8.76;100.00;100344.78;5099071;28;20031;-70
2022/12/20 05:46:54;;;;;;;252.02;29.20;;;;;;;8.81;100.00;100345.03;5106625;28;20040;-69
2022/12/20 05:49:19;;;;;;;250.20;30.30;;;;;;;8.73;100.00;100319.16;5121257;28;20024;-70
2022/12/20 05:51:45;;;;;;;214.23;29.17;;;;;;;8.84;100.00;100342.75;5111246;28;20031;-71
2022/12/20 05:54:10;;;;;;;236.35;29.75;;;;;;;8.94;100.00;100347.75;5112334;28;20046;-70
2022/12/20 05:56:36;;;;;;;228.90;29.65;;;;;;;8.89;100.00;100355.56;5117116;28;20031;-70
2022/12/20 05:59:01;;;;;;;251.82;30.35;;;;;;;8.92;100.00;100345.25;5102374;28;20028;-69
2022/12/20 06:01:27;;;;;;;202.55;27.83;;;;;;;8.93;100.00;100343.41;5107232;28;20031;-70
2022/12/20 06:03:52;;;;;;;236.48;28.83;;;;;;;8.93;100.00;100354.13;5094910;28;20394;-70
2022/12/20 06:06:18;;;;;;;224.35;31.10;;;;;;;8.93;100.00;100340.72;5112407;28;20112;-70
2022/12/20 06:08:43;;;;;;;307.45;32.88;;;;;;;8.82;100.00;100330.56;5106238;28;20151;-69
2022/12/20 06:11:09;;;;;;;275.20;32.33;;;;;;;8.94;100.00;100342.41;5118713;28;20031;-69
2022/12/20 06:13:35;;;;;;;286.45;32.95;;;;;;;8.97;100.00;100341.97;5108028;28;20130;-69
2022/12/20 06:16:00;;;;;;;221.43;30.75;;;;;;;8.98;100.00;100350.88;5112322;28;20115;-70
2022/12/20 06:18:26;;;;;;;290.70;32.97;;;;;;;8.93;100.00;100352.28;5113749;28;20134;-70
2022/12/20 06:20:52;;;;;;;261.02;31.35;;;;;;;8.92;100.00;100342.59;5103514;28;20028;-70
2022/12/20 06:23:19;;;;;;;276.20;32.60;;;;;;;8.89;100.00;100340.28;5116843;28;20039;-69
2022/12/20 06:25:45;;;;;;;264.42;31.73;;;;;;;8.92;100.00;100341.75;5107611;28;20151;-69
2022/12/20 06:28:10;;;;;;;310.02;35.05;;;;;;;8.92;100.00;100344.44;5110397;28;20044;-69
2022/12/20 06:30:36;;;;;;;263.30;32.67;;;;;;;8.93;100.00;100344.22;5116104;28;20100;-69
2022/12/20 06:33:01;;;;;;;312.50;34.83;;;;;;;8.96;100.00;100344.88;5104104;28;20028;-70
2022/12/20 06:35:28;;;;;;;392.92;38.72;;;;;;;8.98;100.00;100351.69;5115370;28;20110;-70
2022/12/20 06:37:53;;;;;;;343.45;35.35;;;;;;;8.78;100.00;100330.13;5110344;28;20080;-70
2022/12/20 06:40:18;;;;;;;322.98;35.75;;;;;;;8.74;100.00;100326.22;5109411;28;20036;-69
2022/12/20 06:42:44;;;;;;;330.40;34.65;;;;;;;8.85;100.00;100349.78;5117063;28;20501;-70
2022/12/20 06:45:10;;;;;;;282.60;32.72;;;;;;;8.82;100.00;100352.84;5103454;28;20047;-70
2022/12/20 06:47:36;;;;;;;248.13;29.52;;;;;;;8.78;100.00;100345.41;5114920;28;20032;-69
2022/12/20 06:50:01;;;;;;;275.88;32.25;;;;;;;8.80;100.00;100349.53;5076200;28;20027;-70
2022/12/20 06:52:27;;;;;;;263.52;32.72;;;;;;;8.77;100.00;100344.56;5106455;28;20088;-70
2022/12/20 06:54:52;;;;;;;252.60;32.47;;;;;;;8.78;100.00;100350.78;5100175;28;20102;-69
2022/12/20 06:57:18;;;;;;;279.65;34.47;;;;;;;8.86;100.00;100361.34;5116321;28;20028;-70
2022/12/20 06:59:44;;;;;;;299.17;35.13;;;;;;;8.89;100.00;100359.06;5106900;28;20054;-70
2022/12/20 07:02:10;;;;;;;274.55;34.83;;;;;;;8.75;100.00;100343.13;5109597;28;20039;-69
2022/12/20 07:04:36;;;;;;;242.35;33.28;;;;;;;8.75;100.00;100343.13;5115161;28;20028;-70
2022/12/20 07:07:02;;;;;;;249.82;33.70;;;;;;;8.90;100.00;100367.94;5103742;28;20031;-69
2022/12/20 07:09:29;;;;;;;326.67;36.92;;;;;;;8.93;100.00;100373.75;5115731;28;20036;-70
2022/12/20 07:11:55;;;;;;;222.30;32.45;;;;;;;8.91;100.00;100383.03;5109252;28;20506;-69
2022/12/20 07:14:21;;;;;;;259.33;34.15;;;;;;;8.80;100.00;100370.16;5109399;28;20047;-68
2022/12/20 07:16:46;;;;;;;297.73;36.72;;;;;;;8.78;100.00;100356.97;5088899;28;20528;-70
2022/12/20 07:19:13;;;;;;;313.23;39.45;;;;;;;8.90;100.00;100402.81;5102679;28;20036;-69
2022/12/20 07:21:38;;;;;;;521.95;43.65;;;;;;;8.91;100.00;100391.09;5107377;28;20039;-70
2022/12/20 07:24:05;;;;;;;384.42;42.13;;;;;;;8.90;100.00;100392.09;5104992;28;20040;-69
2022/12/20 07:26:31;;;;;;;279.08;36.15;;;;;;;8.80;100.00;100370.16;5112966;28;20095;-69
2022/12/20 07:28:56;;;;;;;286.52;35.03;;;;;;;8.85;100.00;100373.91;5102199;28;20056;-69
2022/12/20 07:31:22;;;;;;;266.77;35.10;;;;;;;8.69;100.00;100350.09;5115986;28;20046;-69
2022/12/20 07:33:47;;;;;;;334.42;38.75;;;;;;;8.86;100.00;100362.16;5108020;28;20557;-68
2022/12/20 07:36:14;;;;;;;281.60;36.33;;;;;;;8.85;100.00;100381.16;5092400;28;20518;-69
2022/12/20 07:38:40;;;;;;;316.25;37.90;;;;;;;8.66;100.00;100354.00;5115761;28;20035;-68
2022/12/20 07:41:08;;;;;;;331.58;37.45;;;;;;;8.32;100.00;100305.72;5104745;28;20391;-68
2022/12/20 07:43:33;;;;;;;290.45;37.05;;;;;;;8.76;100.00;100376.97;5113638;28;20060;-68
2022/12/20 07:45:59;;;;;;;354.25;42.80;;;;;;;8.70;100.00;100371.34;5109472;28;20035;-69
2022/12/20 07:48:24;;;;;;;310.55;39.67;;;;;;;8.79;100.00;100381.94;5105382;28;20028;-68
2022/12/20 07:50:58;;;;;;;322.15;38.88;;;;;;;8.77;100.00;100376.75;5116144;28;20560;-69
2022/12/20 07:53:27;;;;;;;280.08;38.03;;;;;;;8.64;100.00;100363.25;5088649;28;20034;-68
2022/12/20 07:55:54;;;;;;;225.18;34.55;;;;;;;8.66;100.00;100378.13;5112424;28;20440;-68
2022/12/20 07:58:20;;;;;;;228.82;34.13;;;;;;;8.69;100.00;100390.34;5094090;28;20055;-67
2022/12/20 08:00:46;;;;;;;336.65;40.03;;;;;;;8.55;100.00;100361.78;5103942;28;20134;-69
2022/12/20 08:03:20;;;;;;;198.43;32.30;;;;;;;8.77;100.00;100395.53;5082103;28;20055;-68
2022/12/20 08:05:50;;;;;;;234.43;36.38;;;;;;;8.80;100.00;100392.44;5104933;28;20085;-67
2022/12/20 08:08:17;;;;;;;223.27;36.45;;;;;;;8.84;100.00;100401.78;5106122;28;20034;-70
2022/12/20 08:10:42;;;;;;;236.00;35.40;;;;;;;8.75;100.00;100386.88;5098654;28;20031;-71
2022/12/20 08:13:08;;;;;;;339.15;42.60;;;;;;;8.79;100.00;100400.72;5115883;28;20047;-71
2022/12/20 08:15:34;;;;;;;240.00;36.67;;;;;;;8.75;100.00;100391.41;5081959;28;20225;-70
2022/12/20 08:18:01;;;;;;;261.88;36.95;;;;;;;8.85;100.00;100397.25;5108529;28;20039;-71
2022/12/20 08:20:26;;;;;;;320.70;40.05;;;;;;;8.83;100.00;100389.38;5106315;28;20084;-70
2022/12/20 08:22:52;;;;;;;382.17;44.70;;;;;;;8.89;100.00;100399.31;5117280;28;20110;-71
2022/12/20 08:25:18;;;;;;;325.88;41.92;;;;;;;8.86;100.00;100397.03;5121841;28;20027;-71
2022/12/20 08:27:43;;;;;;;308.83;42.08;;;;;;;8.81;100.00;100396.81;5116112;28;20024;-70
2022/12/20 08:30:10;;;;;;;284.98;43.55;;;;;;;8.78;100.00;100399.88;5112319;28;20058;-72
2022/12/20 08:32:36;;;;;;;272.35;41.13;;;;;;;8.78;100.00;100399.06;5091862;28;20036;-71
2022/12/20 08:35:02;;;;;;;206.68;38.10;;;;;;;8.78;100.00;100405.25;5120429;28;20024;-71
2022/12/20 08:37:27;;;;;;;201.20;37.72;;;;;;;8.78;100.00;100410.63;5108189;28;20042;-70
2022/12/20 08:39:52;;;;;;;223.20;38.88;;;;;;;8.81;100.00;100412.91;5115837;28;20024;-70
2022/12/20 08:42:18;;;;;;;251.63;39.50;;;;;;;8.74;100.00;100384.38;5096768;28;20099;-71
2022/12/20 08:44:44;;;;;;;225.82;38.03;;;;;;;8.69;100.00;100390.34;5091110;28;20115;-71
2022/12/20 08:47:12;;;;;;;226.85;36.97;;;;;;;8.86;100.00;100407.75;5120027;28;20027;-70
2022/12/20 08:49:37;;;;;;;292.63;39.33;;;;;;;8.72;100.00;100386.44;5107721;28;20023;-71
2022/12/20 08:52:03;;;;;;;322.00;41.65;;;;;;;8.79;100.00;100400.72;5114369;28;20088;-72
2022/12/20 08:54:28;;;;;;;343.08;40.03;;;;;;;8.87;100.00;100417.50;5114648;28;20023;-69
2022/12/20 08:56:53;;;;;;;254.73;36.15;;;;;;;8.88;100.00;100407.59;5104218;28;20032;-71
2022/12/20 08:59:19;;;;;;;327.77;38.38;;;;;;;8.89;100.00;100410.06;5117501;28;20055;-71
2022/12/20 09:01:44;;;;;;;301.10;36.60;;;;;;;8.86;100.00;100405.09;5106642;28;20031;-74
2022/12/20 09:04:11;;;;;;;342.90;39.30;;;;;;;8.66;100.00;100371.94;5110685;28;20036;-71
2022/12/20 09:06:37;;;;;;;366.55;39.38;;;;;;;8.84;100.00;100403.63;5115910;28;20024;-74
2022/12/20 09:09:04;;;;;;;272.40;34.97;;;;;;;8.74;100.00;100387.91;5104418;28;20441;-72
2022/12/20 09:11:30;;;;;;;338.48;38.65;;;;;;;8.75;100.00;100397.59;5116560;28;20028;-72
2022/12/20 09:14:16;;;;;;;278.55;35.42;;;;;;;8.53;100.00;100361.13;5092239;28;20051;-73
2022/12/20 09:16:41;;;;;;;288.20;36.00;;;;;;;8.73;100.00;100410.38;5084627;28;20127;-72
2022/12/20 09:19:07;;;;;;;227.23;33.63;;;;;;;8.68;100.00;100412.81;5061842;28;20090;-73
2022/12/20 09:21:33;;;;;;;189.90;33.28;;;;;;;8.54;100.00;100395.78;5049888;28;20055;-73
2022/12/20 09:23:59;;;;;;;175.07;32.53;;;;;;;8.68;100.00;100408.28;5073537;28;20052;-66
2022/12/20 09:26:25;;;;;;;195.18;36.28;;;;;;;8.62;100.00;100413.59;5093932;28;20065;-73
2022/12/20 09:28:50;;;;;;;204.15;36.88;;;;;;;8.57;100.00;100416.03;5070040;28;20105;-73
2022/12/20 09:31:18;;;;;;;212.48;39.03;;;;;;;8.49;100.00;100400.09;5099164;28;20048;-73
2022/12/20 09:33:44;;;;;;;251.75;43.33;;;;;;;8.53;100.00;100404.88;5088161;28;20028;-73
2022/12/20 09:36:12;;;;;;;206.65;40.13;;;;;;;8.50;100.00;100405.25;5074669;28;20043;-74
2022/12/20 09:38:37;;;;;;;195.20;38.58;;;;;;;8.56;100.00;100404.47;5094793;28;20063;-73
2022/12/20 09:41:07;;;;;;;206.93;40.80;;;;;;;8.52;100.00;100402.41;5068639;28;20096;-73
2022/12/20 09:43:33;;;;;;;227.80;43.47;;;;;;;8.54;100.00;100386.91;5100911;28;20029;-73
2022/12/20 09:46:02;;;;;;;218.02;42.55;;;;;;;8.54;100.00;100385.06;5078559;28;20093;-73
2022/12/20 09:48:37;;;;;;;217.70;41.10;;;;;;;8.58;100.00;100391.72;5093139;28;20036;-73
2022/12/20 09:51:11;;;;;;;166.38;36.90;;;;;;;8.67;100.00;100395.88;5084668;28;20051;-73
2022/12/20 09:54:13;;;;;;;178.90;38.90;;;;;;;8.65;100.00;100384.53;5097540;28;20042;-73
2022/12/20 09:56:45;;;;;;;148.95;34.63;;;;;;;8.58;100.00;100385.53;5112307;28;20371;-72
2022/12/20 09:59:13;;;;;;;162.48;34.72;;;;;;;8.63;100.00;100369.66;5123887;28;20457;-72
2022/12/20 10:01:44;;;;;;;159.30;35.65;;;;;;;8.67;100.00;100378.97;5112250;28;20082;-73
2022/12/20 10:04:28;;;;;;;118.07;31.77;;;;;;;8.54;100.00;100342.16;5115337;28;20470;-72
2022/12/20 10:07:22;;;;;;;124.07;31.70;;;;;;;8.74;100.00;100368.28;5118752;28;20411;-73
2022/12/20 10:10:22;;;;;;;95.05;28.13;;;;;;;8.75;100.00;100362.72;5076992;28;20035;-73
2022/12/20 10:13:17;;;;;;;71.40;23.48;;;;;;;8.73;100.00;100359.41;5105524;28;20048;-73
2022/12/20 10:15:53;;;;;;;62.75;21.92;;;;;;;8.73;100.00;100343.31;5093657;28;20035;-73
2022/12/20 10:19:06;;;;;;;62.90;21.65;;;;;;;8.84;100.00;100348.13;5109593;28;20035;-73
2022/12/20 10:21:34;;;;;;;59.90;22.10;;;;;;;8.80;100.00;100344.16;5055949;28;20036;-73
2022/12/20 10:24:12;;;;;;;57.53;21.83;;;;;;;8.84;100.00;100342.75;5110605;28;20028;-73
2022/12/20 10:26:38;;;;;;;57.22;21.70;;;;;;;8.81;100.00;100347.69;5115743;28;20403;-73
2022/12/20 10:29:03;;;;;;;55.08;21.77;;;;;;;8.79;100.00;100339.84;5100476;28;20123;-73
2022/12/20 10:31:28;;;;;;;51.70;21.08;;;;;;;8.80;100.00;100333.44;5107426;28;20033;-73
2022/12/20 10:33:54;;;;;;;55.05;21.13;;;;;;;8.86;100.00;100338.00;5093204;28;20031;-73
2022/12/20 10:36:27;;;;;;;46.70;19.67;;;;;;;8.89;100.00;100342.97;5109535;28;20040;-73
2022/12/20 10:39:10;;;;;;;41.05;18.73;;;;;;;8.88;100.00;100337.81;5119658;28;20046;-73
2022/12/20 10:41:39;;;;;;;30.30;15.07;;;;;;;8.87;100.00;100330.78;5090155;28;20055;-73
2022/12/20 10:44:16;;;;;;;26.40;13.95;;;;;;;8.86;100.00;100335.31;5113800;28;20024;-73
2022/12/20 10:46:50;;;;;;;27.00;14.05;;;;;;;8.70;100.00;100306.16;5117595;28;20031;-73
2022/12/20 10:49:27;;;;;;;26.73;13.45;;;;;;;8.93;100.00;100322.75;5107043;28;20055;-73
2022/12/20 10:51:54;;;;;;;19.67;11.77;;;;;;;8.90;100.00;100323.16;5115909;28;20506;-73
2022/12/20 10:54:32;;;;;;;19.60;10.73;;;;;;;8.91;100.00;100326.69;5112302;28;20031;-73
2022/12/20 10:57:05;;;;;;;20.48;12.80;;;;;;;8.98;100.00;100319.50;5105210;28;20043;-72
2022/12/20 10:59:38;;;;;;;19.73;12.07;;;;;;;8.93;100.00;100312.03;5120800;28;20035;-73
2022/12/20 11:02:37;;;;;;;19.92;11.82;;;;;;;8.91;100.00;100305.22;5111042;28;20024;-73
2022/12/20 11:05:09;;;;;;;18.65;11.32;;;;;;;8.93;100.00;100305.84;5060786;28;20040;-73
2022/12/20 11:07:35;;;;;;;15.52;10.50;;;;;;;8.97;100.00;100304.41;5117353;28;20016;-72
2022/12/20 11:10:23;;;;;;;16.25;10.10;;;;;;;9.02;100.00;100304.63;5110474;28;20019;-72
2022/12/20 11:13:23;;;;;;;15.93;9.20;;;;;;;8.92;100.00;100301.50;5107140;28;20490;-69
2022/12/20 11:15:53;;;;;;;15.88;9.65;;;;;;;8.90;100.00;100299.00;5095827;28;20110;-70
2022/12/20 11:18:34;;;;;;;14.40;8.68;;;;;;;8.81;100.00;100267.22;5110614;28;20062;-69
2022/12/20 11:20:59;;;;;;;9.15;7.25;;;;;;;9.00;100.00;100297.81;5122655;28;20028;-70
2022/12/20 11:23:40;;;;;;;11.05;6.80;;;;;;;8.74;100.00;100267.19;5110697;28;20115;-71
2022/12/20 11:26:44;;;;;;;9.40;6.20;;;;;;;8.92;100.00;100293.47;5110427;28;20011;-71